Terminal Aerodrome Forecast
Issued by NWS

Home | Current Version | Previous Version | Graphics & Text | Print | Product List | Glossary On
Versions: 1 2 3 4 5 6 7 8 9 10 11 12
000
FTUS45 KGGW 201127
TAFSDY
TAF
KSDY 201127Z 2012/2112 24006KT 4SM BR SCT110
     FM201500 25007KT P6SM FEW100
     FM201700 26013KT P6SM FEW120
     FM202100 25010KT P6SM FEW200
     FM210400 19007KT P6SM BKN060 WS020/26035KT
     FM210900 22008KT P6SM BKN070 WS020/27040KT=

USA.gov is the U.S. government's official web portal to all federal, state and local government web resources and services.